Time;durP1;ratioP1;P1;durP2;ratioP2;P2;SDS_P1;SDS_P2;PMS_P1;PMS_P2;Temp;Humidity;BMP_temperature;BMP_pressure;BME280_temperature;BME280_humidity;BME280_pressure;Samples;Min_cycle;Max_cycle;Signal;HPM_P1;HPM_P2
2023/11/27 00:00:43;;;;;;;6.03;3.60;;;;;;;;;;5114886;28;20035;-57
2023/11/27 00:03:09;;;;;;;5.47;3.13;;;;;;;;;;5115404;28;20515;-57
2023/11/27 00:05:35;;;;;;;4.20;3.13;;;;;;;;;;5115070;28;20033;-57
2023/11/27 00:08:01;;;;;;;8.17;3.97;;;;;;;;;;5115198;28;20133;-57
2023/11/27 00:10:27;;;;;;;4.30;3.20;;;;;;;;;;5115489;28;20019;-57
2023/11/27 00:12:58;;;;;;;7.30;3.92;;;;;;;;;;5115038;28;20031;-57
2023/11/27 00:15:24;;;;;;;4.57;3.63;;;;;;;;;;5115306;28;20160;-57
2023/11/27 00:17:50;;;;;;;4.53;3.50;;;;;;;;;;5114976;28;20089;-57
2023/11/27 00:20:16;;;;;;;4.38;3.42;;;;;;;;;;5114292;28;20377;-57
2023/11/27 00:22:42;;;;;;;5.13;3.73;;;;;;;;;;5114549;28;20031;-57
2023/11/27 00:25:08;;;;;;;4.43;4.03;;;;;;;;;;5115294;28;20026;-57
2023/11/27 00:27:34;;;;;;;5.37;3.90;;;;;;;;;;5115319;28;20370;-57
2023/11/27 00:30:00;;;;;;;4.30;3.27;;;;;;;;;;5114453;28;20019;-57
2023/11/27 00:32:26;;;;;;;3.45;3.13;;;;;;;;;;5114564;28;20027;-57
2023/11/27 00:34:52;;;;;;;5.23;3.73;;;;;;;;;;5114368;28;20434;-57
2023/11/27 00:37:18;;;;;;;4.45;3.50;;;;;;;;;;5114660;28;20033;-59
2023/11/27 00:39:44;;;;;;;4.63;3.83;;;;;;;;;;5114807;28;20093;-59
2023/11/27 00:42:10;;;;;;;5.47;3.83;;;;;;;;;;5114267;28;20023;-59
2023/11/27 00:44:36;;;;;;;4.78;3.55;;;;;;;;;;5114255;28;20024;-59
2023/11/27 00:47:02;;;;;;;5.10;3.40;;;;;;;;;;5114828;28;20023;-59
2023/11/27 00:49:28;;;;;;;5.27;3.53;;;;;;;;;;5114151;28;20019;-59
2023/11/27 00:51:53;;;;;;;7.30;3.30;;;;;;;;;;5114133;28;20354;-59
2023/11/27 00:54:19;;;;;;;8.33;3.50;;;;;;;;;;5113776;28;20161;-60
2023/11/27 00:56:46;;;;;;;4.03;2.90;;;;;;;;;;5114490;28;20071;-59
2023/11/27 00:59:12;;;;;;;4.73;3.53;;;;;;;;;;5114336;28;20111;-59
2023/11/27 01:01:38;;;;;;;4.97;3.47;;;;;;;;;;5114781;28;20396;-60
2023/11/27 01:04:04;;;;;;;4.83;3.70;;;;;;;;;;5114332;28;20361;-60
2023/11/27 01:06:30;;;;;;;5.07;3.38;;;;;;;;;;5113927;28;20468;-59
2023/11/27 01:08:55;;;;;;;6.30;3.20;;;;;;;;;;5114661;28;20016;-60
2023/11/27 01:11:22;;;;;;;8.03;3.17;;;;;;;;;;5114490;28;20403;-60
2023/11/27 01:13:48;;;;;;;4.85;3.50;;;;;;;;;;5114034;28;20031;-59
2023/11/27 01:16:13;;;;;;;4.40;3.00;;;;;;;;;;5113712;28;20046;-58
2023/11/27 01:18:39;;;;;;;4.47;3.40;;;;;;;;;;5114549;28;20419;-59
2023/11/27 01:21:06;;;;;;;5.03;3.30;;;;;;;;;;5113965;28;20526;-59
2023/11/27 01:23:32;;;;;;;4.03;3.20;;;;;;;;;;5113924;28;20020;-59
2023/11/27 01:25:58;;;;;;;7.90;3.57;;;;;;;;;;5114417;28;20331;-59
2023/11/27 01:28:23;;;;;;;4.72;3.47;;;;;;;;;;5113833;28;20031;-59
2023/11/27 01:30:49;;;;;;;4.47;3.27;;;;;;;;;;5113753;28;20088;-59
2023/11/27 01:33:16;;;;;;;4.43;3.17;;;;;;;;;;5114005;28;20168;-59
2023/11/27 01:35:41;;;;;;;5.17;3.60;;;;;;;;;;5113702;28;20028;-59
2023/11/27 01:38:07;;;;;;;5.40;3.57;;;;;;;;;;5114126;28;20107;-59
2023/11/27 01:40:34;;;;;;;8.18;3.90;;;;;;;;;;5113760;28;20024;-59
2023/11/27 01:43:00;;;;;;;5.22;3.28;;;;;;;;;;5113762;28;20028;-60
2023/11/27 01:45:26;;;;;;;5.90;4.07;;;;;;;;;;5113747;28;20047;-59
2023/11/27 01:47:52;;;;;;;4.97;3.43;;;;;;;;;;5113875;28;20034;-59
2023/11/27 01:50:18;;;;;;;5.13;2.92;;;;;;;;;;5113487;28;20024;-59
2023/11/27 01:52:44;;;;;;;4.18;3.33;;;;;;;;;;5113674;28;20423;-59
2023/11/27 01:55:11;;;;;;;5.53;3.70;;;;;;;;;;5113853;28;20028;-59
2023/11/27 01:57:37;;;;;;;3.90;2.88;;;;;;;;;;5113616;28;20020;-58
2023/11/27 02:00:05;;;;;;;4.83;2.70;;;;;;;;;;5113585;28;20023;-59
2023/11/27 02:02:31;;;;;;;7.70;3.63;;;;;;;;;;5114335;28;20065;-59
2023/11/27 02:04:57;;;;;;;5.90;3.70;;;;;;;;;;5114022;28;20032;-60
2023/11/27 02:07:23;;;;;;;5.33;3.13;;;;;;;;;;5114086;28;20106;-59
2023/11/27 02:09:49;;;;;;;3.50;2.93;;;;;;;;;;5113342;28;20120;-59
2023/11/27 02:12:15;;;;;;;4.75;3.63;;;;;;;;;;5113680;28;20509;-60
2023/11/27 02:14:41;;;;;;;5.05;3.25;;;;;;;;;;5114252;28;20032;-60
2023/11/27 02:17:07;;;;;;;3.80;2.27;;;;;;;;;;5115078;28;20108;-60
2023/11/27 02:19:33;;;;;;;3.27;2.37;;;;;;;;;;5117598;28;20088;-60
2023/11/27 02:21:59;;;;;;;4.97;3.07;;;;;;;;;;5116726;28;20024;-59
2023/11/27 02:24:25;;;;;;;4.15;2.63;;;;;;;;;;5116945;28;20080;-60
2023/11/27 02:26:51;;;;;;;4.07;2.73;;;;;;;;;;5116987;28;20038;-59
2023/11/27 02:29:17;;;;;;;4.73;3.07;;;;;;;;;;5116938;28;20023;-60
2023/11/27 02:31:43;;;;;;;4.53;2.97;;;;;;;;;;5117198;28;20110;-60
2023/11/27 02:34:09;;;;;;;3.67;2.50;;;;;;;;;;5116837;28;20454;-59
2023/11/27 02:36:41;;;;;;;3.80;3.17;;;;;;;;;;5116455;28;20019;-59
2023/11/27 02:39:07;;;;;;;3.10;2.43;;;;;;;;;;5116716;28;20032;-59
2023/11/27 02:41:36;;;;;;;5.00;2.73;;;;;;;;;;5116644;28;20031;-59
2023/11/27 02:44:02;;;;;;;4.47;3.20;;;;;;;;;;5116585;28;20023;-59
2023/11/27 02:46:28;;;;;;;4.50;2.97;;;;;;;;;;5116480;28;20034;-59
2023/11/27 02:48:54;;;;;;;4.70;2.77;;;;;;;;;;5116933;28;20068;-59
2023/11/27 02:51:20;;;;;;;6.63;2.70;;;;;;;;;;5116823;28;20027;-59
2023/11/27 02:53:46;;;;;;;8.83;2.70;;;;;;;;;;5116960;28;20071;-59
2023/11/27 02:56:13;;;;;;;6.53;2.30;;;;;;;;;;5116506;28;20130;-60
2023/11/27 02:58:39;;;;;;;4.90;2.40;;;;;;;;;;5116288;28;20035;-60
2023/11/27 03:01:09;;;;;;;4.40;2.70;;;;;;;;;;5116234;28;20034;-59
2023/11/27 03:03:37;;;;;;;3.70;2.47;;;;;;;;;;5117127;28;20338;-59
2023/11/27 03:06:03;;;;;;;4.37;2.17;;;;;;;;;;5116725;28;20023;-60
2023/11/27 03:08:29;;;;;;;4.67;3.13;;;;;;;;;;5116486;28;20094;-60
2023/11/27 03:10:56;;;;;;;3.37;2.20;;;;;;;;;;5116257;28;20114;-58
2023/11/27 03:13:23;;;;;;;3.40;1.80;;;;;;;;;;5116082;28;20410;-59
2023/11/27 03:15:49;;;;;;;3.70;1.90;;;;;;;;;;5115935;28;20035;-60
2023/11/27 03:18:15;;;;;;;4.83;2.70;;;;;;;;;;5116266;28;20084;-60
2023/11/27 03:20:41;;;;;;;2.80;2.00;;;;;;;;;;5116199;28;20058;-60
2023/11/27 03:23:06;;;;;;;3.20;2.30;;;;;;;;;;5115519;28;20024;-59
2023/11/27 03:25:32;;;;;;;3.93;2.13;;;;;;;;;;5115800;28;20373;-59
2023/11/27 03:27:58;;;;;;;5.07;2.10;;;;;;;;;;5115487;28;20489;-59
2023/11/27 03:30:24;;;;;;;5.47;2.13;;;;;;;;;;5115546;28;20035;-59
2023/11/27 03:32:50;;;;;;;3.60;2.30;;;;;;;;;;5116225;28;20436;-59
2023/11/27 03:35:16;;;;;;;4.20;1.87;;;;;;;;;;5116351;28;20024;-60
2023/11/27 03:37:43;;;;;;;6.17;2.03;;;;;;;;;;5115610;28;20020;-59
2023/11/27 03:40:09;;;;;;;5.10;2.40;;;;;;;;;;5115704;28;20400;-59
2023/11/27 03:42:35;;;;;;;5.17;2.23;;;;;;;;;;5116162;28;20095;-59
2023/11/27 03:45:01;;;;;;;4.72;2.47;;;;;;;;;;5115290;28;20020;-59
2023/11/27 03:47:27;;;;;;;3.20;2.03;;;;;;;;;;5115828;28;20026;-59
2023/11/27 03:49:54;;;;;;;4.10;2.00;;;;;;;;;;5114956;28;20055;-58
2023/11/27 03:52:22;;;;;;;4.75;2.25;;;;;;;;;;5115087;28;20047;-60
2023/11/27 03:54:48;;;;;;;5.73;2.03;;;;;;;;;;5115054;28;20042;-59
2023/11/27 03:57:15;;;;;;;3.65;1.63;;;;;;;;;;5116090;28;20436;-59
2023/11/27 03:59:41;;;;;;;3.88;1.83;;;;;;;;;;5114746;28;20084;-60
2023/11/27 04:02:09;;;;;;;3.33;2.40;;;;;;;;;;5114697;28;20118;-59
2023/11/27 04:04:35;;;;;;;4.20;1.93;;;;;;;;;;5114952;28;20039;-60
2023/11/27 04:07:00;;;;;;;3.92;2.42;;;;;;;;;;5115752;28;20163;-59
2023/11/27 04:09:26;;;;;;;3.92;1.70;;;;;;;;;;5114866;28;20024;-59
2023/11/27 04:11:52;;;;;;;2.37;1.47;;;;;;;;;;5114537;28;20024;-59
2023/11/27 04:14:18;;;;;;;2.40;1.60;;;;;;;;;;5115083;28;20032;-60
2023/11/27 04:16:44;;;;;;;2.50;1.53;;;;;;;;;;5114825;28;20073;-59
2023/11/27 04:19:10;;;;;;;2.93;1.80;;;;;;;;;;5114748;28;20110;-60
2023/11/27 04:21:36;;;;;;;3.23;1.47;;;;;;;;;;5115064;28;20063;-60
2023/11/27 04:24:02;;;;;;;4.03;2.03;;;;;;;;;;5115206;28;20019;-59
2023/11/27 04:26:28;;;;;;;3.08;1.85;;;;;;;;;;5115443;28;20023;-59
2023/11/27 04:28:54;;;;;;;2.50;1.60;;;;;;;;;;5115003;28;20024;-59
2023/11/27 04:31:20;;;;;;;2.87;1.57;;;;;;;;;;5115281;28;20063;-60
2023/11/27 04:33:47;;;;;;;3.42;2.08;;;;;;;;;;5114519;28;20480;-60
2023/11/27 04:36:18;;;;;;;6.53;2.20;;;;;;;;;;5114435;28;20514;-60
2023/11/27 04:38:44;;;;;;;3.93;1.80;;;;;;;;;;5115086;28;20061;-60
2023/11/27 04:41:10;;;;;;;3.03;1.70;;;;;;;;;;5114495;28;20073;-60
2023/11/27 04:43:36;;;;;;;3.70;1.67;;;;;;;;;;5114396;28;20023;-59
2023/11/27 04:46:02;;;;;;;3.27;1.57;;;;;;;;;;5114276;28;20027;-60
2023/11/27 04:48:28;;;;;;;2.07;1.27;;;;;;;;;;5112904;28;20123;-59
2023/11/27 04:50:54;;;;;;;2.80;1.67;;;;;;;;;;5113838;28;20034;-59
2023/11/27 04:53:20;;;;;;;4.87;1.60;;;;;;;;;;5114469;28;20024;-59
2023/11/27 04:55:46;;;;;;;3.03;2.20;;;;;;;;;;5114253;28;20397;-60
2023/11/27 04:58:12;;;;;;;3.60;2.40;;;;;;;;;;5114621;28;20035;-59
2023/11/27 05:00:37;;;;;;;2.93;1.77;;;;;;;;;;5114630;28;20099;-60
2023/11/27 05:03:04;;;;;;;2.10;1.30;;;;;;;;;;5114224;28;20505;-60
2023/11/27 05:05:30;;;;;;;6.63;3.55;;;;;;;;;;5114231;28;20024;-60
2023/11/27 05:07:55;;;;;;;2.73;1.83;;;;;;;;;;5114394;28;20030;-59
2023/11/27 05:10:22;;;;;;;3.65;1.83;;;;;;;;;;5114158;28;20023;-60
2023/11/27 05:12:47;;;;;;;6.87;1.97;;;;;;;;;;5114043;28;20031;-60
2023/11/27 05:15:13;;;;;;;4.23;1.80;;;;;;;;;;5114599;28;20156;-60
2023/11/27 05:17:39;;;;;;;3.50;2.40;;;;;;;;;;5114401;28;20058;-59
2023/11/27 05:20:06;;;;;;;2.27;1.63;;;;;;;;;;5114610;28;20023;-60
2023/11/27 05:22:34;;;;;;;4.43;1.67;;;;;;;;;;5114744;28;20040;-60
2023/11/27 05:25:00;;;;;;;8.03;1.80;;;;;;;;;;5114176;28;20028;-59
2023/11/27 05:27:26;;;;;;;4.00;2.10;;;;;;;;;;5114752;28;20020;-59
2023/11/27 05:29:52;;;;;;;4.67;1.90;;;;;;;;;;5114380;28;20406;-58
2023/11/27 05:32:18;;;;;;;3.17;2.00;;;;;;;;;;5113873;28;20464;-59
2023/11/27 05:34:44;;;;;;;2.30;1.73;;;;;;;;;;5114154;28;20024;-59
2023/11/27 05:37:10;;;;;;;4.67;1.57;;;;;;;;;;5114187;28;20024;-59
2023/11/27 05:39:37;;;;;;;3.53;2.67;;;;;;;;;;5113868;28;20092;-59
2023/11/27 05:42:03;;;;;;;4.20;2.17;;;;;;;;;;5113766;28;20035;-59
2023/11/27 05:44:29;;;;;;;2.90;2.03;;;;;;;;;;5113680;28;20016;-59
2023/11/27 05:46:56;;;;;;;3.85;1.88;;;;;;;;;;5114370;28;20111;-59
2023/11/27 05:49:22;;;;;;;3.78;1.88;;;;;;;;;;5113665;28;20024;-59
2023/11/27 05:51:48;;;;;;;3.40;1.87;;;;;;;;;;5117070;28;20369;-59
2023/11/27 05:54:14;;;;;;;4.03;2.13;;;;;;;;;;5117107;28;20057;-59
2023/11/27 05:56:40;;;;;;;3.97;1.90;;;;;;;;;;5118527;28;20107;-59
2023/11/27 05:59:07;;;;;;;3.03;1.67;;;;;;;;;;5117365;28;20102;-59
2023/11/27 06:01:33;;;;;;;2.45;1.73;;;;;;;;;;5117390;28;20043;-59
2023/11/27 06:03:59;;;;;;;3.77;2.40;;;;;;;;;;5117616;28;20365;-59
2023/11/27 06:06:25;;;;;;;3.00;1.67;;;;;;;;;;5117270;28;20102;-57
2023/11/27 06:08:51;;;;;;;2.67;1.97;;;;;;;;;;5117940;28;20057;-58
2023/11/27 06:11:17;;;;;;;3.20;1.90;;;;;;;;;;5117308;28;20453;-58
2023/11/27 06:13:43;;;;;;;5.93;2.50;;;;;;;;;;5118117;28;20032;-58
2023/11/27 06:16:09;;;;;;;6.95;2.83;;;;;;;;;;5118051;28;20031;-55
2023/11/27 06:18:35;;;;;;;5.27;2.93;;;;;;;;;;5116841;28;20445;-57
2023/11/27 06:21:03;;;;;;;4.63;2.38;;;;;;;;;;5117695;28;20074;-58
2023/11/27 06:23:29;;;;;;;3.03;2.23;;;;;;;;;;5117040;28;20072;-58
2023/11/27 06:25:55;;;;;;;3.90;2.47;;;;;;;;;;5116699;28;20031;-58
2023/11/27 06:28:21;;;;;;;3.40;2.27;;;;;;;;;;5116995;28;20114;-58
2023/11/27 06:30:47;;;;;;;3.00;2.63;;;;;;;;;;5117274;28;20016;-55
2023/11/27 06:33:13;;;;;;;5.53;2.40;;;;;;;;;;5116856;28;20057;-58
2023/11/27 06:35:39;;;;;;;6.30;2.70;;;;;;;;;;5117274;28;20341;-55
2023/11/27 06:38:05;;;;;;;13.85;3.58;;;;;;;;;;5117681;28;20024;-55
2023/11/27 06:40:30;;;;;;;5.07;3.47;;;;;;;;;;5116773;28;20023;-56
2023/11/27 06:42:56;;;;;;;6.43;3.37;;;;;;;;;;5116576;28;20032;-54
2023/11/27 06:45:22;;;;;;;3.92;3.15;;;;;;;;;;5116797;28;20061;-57
2023/11/27 06:47:48;;;;;;;5.93;3.50;;;;;;;;;;5116764;28;20063;-57
2023/11/27 06:50:17;;;;;;;6.65;4.07;;;;;;;;;;5116565;28;20028;-58
2023/11/27 06:52:43;;;;;;;7.90;4.23;;;;;;;;;;5116357;28;20027;-58
2023/11/27 06:55:09;;;;;;;5.13;3.50;;;;;;;;;;5116629;28;20031;-58
2023/11/27 06:57:35;;;;;;;4.20;3.30;;;;;;;;;;5116611;28;20023;-54
2023/11/27 07:00:02;;;;;;;7.50;3.80;;;;;;;;;;5116841;28;20024;-58
2023/11/27 07:02:30;;;;;;;6.10;3.53;;;;;;;;;;5116139;28;20039;-57
2023/11/27 07:04:57;;;;;;;6.13;3.85;;;;;;;;;;5116186;28;20024;-58
2023/11/27 07:07:23;;;;;;;7.43;3.47;;;;;;;;;;5116589;28;20024;-58
2023/11/27 07:09:49;;;;;;;5.27;3.90;;;;;;;;;;5116236;28;20024;-56
2023/11/27 07:12:17;;;;;;;4.75;3.85;;;;;;;;;;5116389;28;20043;-55
2023/11/27 07:14:43;;;;;;;6.50;3.53;;;;;;;;;;5117014;28;20023;-58
2023/11/27 07:17:09;;;;;;;7.27;4.20;;;;;;;;;;5116262;28;20107;-57
2023/11/27 07:19:35;;;;;;;7.03;3.87;;;;;;;;;;5116336;28;20092;-54
2023/11/27 07:22:02;;;;;;;4.53;3.40;;;;;;;;;;5115791;28;20031;-55
2023/11/27 07:24:28;;;;;;;6.25;3.58;;;;;;;;;;5116146;28;20063;-57
2023/11/27 07:26:54;;;;;;;5.78;4.10;;;;;;;;;;5115868;28;20070;-56
2023/11/27 07:29:20;;;;;;;6.57;4.18;;;;;;;;;;5116342;28;20015;-57
2023/11/27 07:31:46;;;;;;;5.80;3.67;;;;;;;;;;5115466;28;20447;-57
2023/11/27 07:34:13;;;;;;;9.00;3.95;;;;;;;;;;5116295;28;20035;-59
2023/11/27 07:36:38;;;;;;;7.53;4.35;;;;;;;;;;5115678;28;20089;-53
2023/11/27 07:39:07;;;;;;;7.33;4.43;;;;;;;;;;5115662;28;20023;-57
2023/11/27 07:41:34;;;;;;;4.67;3.30;;;;;;;;;;5116205;28;20028;-56
2023/11/27 07:43:59;;;;;;;7.17;4.07;;;;;;;;;;5116232;28;20030;-59
2023/11/27 07:46:25;;;;;;;10.98;4.10;;;;;;;;;;5115781;28;20373;-56
2023/11/27 07:48:51;;;;;;;6.05;4.40;;;;;;;;;;5116208;28;20398;-55
2023/11/27 07:51:17;;;;;;;6.73;4.13;;;;;;;;;;5115328;28;20208;-58
2023/11/27 07:53:44;;;;;;;4.82;3.95;;;;;;;;;;5115415;28;20084;-54
2023/11/27 07:56:10;;;;;;;8.93;3.95;;;;;;;;;;5115006;28;20127;-54
2023/11/27 07:58:36;;;;;;;6.72;3.90;;;;;;;;;;5115760;28;20024;-56
2023/11/27 08:01:03;;;;;;;7.32;4.65;;;;;;;;;;5115376;28;20027;-55
2023/11/27 08:03:29;;;;;;;6.53;3.60;;;;;;;;;;5115368;28;20407;-57
2023/11/27 08:05:56;;;;;;;6.53;4.38;;;;;;;;;;5114741;28;20031;-57
2023/11/27 08:08:22;;;;;;;7.93;4.15;;;;;;;;;;5115429;28;20461;-53
2023/11/27 08:10:48;;;;;;;4.57;3.28;;;;;;;;;;5114959;28;20031;-51
2023/11/27 08:13:15;;;;;;;5.45;3.92;;;;;;;;;;5115213;28;20054;-53
2023/11/27 08:15:42;;;;;;;7.33;4.53;;;;;;;;;;5096080;28;20096;-55
2023/11/27 08:18:08;;;;;;;5.18;3.80;;;;;;;;;;5114892;28;20080;-57
2023/11/27 08:20:38;;;;;;;9.30;3.97;;;;;;;;;;5114538;28;20020;-56
2023/11/27 08:23:04;;;;;;;6.40;4.40;;;;;;;;;;5115198;28;20016;-58
2023/11/27 08:25:30;;;;;;;9.32;3.75;;;;;;;;;;5114598;28;20023;-58
2023/11/27 08:27:56;;;;;;;5.43;2.97;;;;;;;;;;5114442;28;20019;-58
2023/11/27 08:30:24;;;;;;;5.18;3.83;;;;;;;;;;5114752;28;20128;-58
2023/11/27 08:32:50;;;;;;;7.35;3.70;;;;;;;;;;5114463;28;20036;-57
2023/11/27 08:35:17;;;;;;;7.28;3.97;;;;;;;;;;5114653;28;20046;-57
2023/11/27 08:37:43;;;;;;;7.13;4.05;;;;;;;;;;5114348;28;20024;-58
2023/11/27 08:40:12;;;;;;;7.38;4.18;;;;;;;;;;5114509;28;20073;-58
2023/11/27 08:42:38;;;;;;;8.20;3.83;;;;;;;;;;5114491;28;20040;-58
2023/11/27 08:45:10;;;;;;;4.80;4.07;;;;;;;;;;5114271;28;20107;-54
2023/11/27 08:47:40;;;;;;;4.78;3.55;;;;;;;;;;5114152;28;20042;-55
2023/11/27 08:50:07;;;;;;;4.90;3.60;;;;;;;;;;5114172;28;20035;-54
2023/11/27 08:52:34;;;;;;;6.82;3.13;;;;;;;;;;5114529;28;20035;-57
2023/11/27 08:55:00;;;;;;;6.85;2.75;;;;;;;;;;5113977;28;20032;-54
2023/11/27 08:57:26;;;;;;;6.03;4.00;;;;;;;;;;5114689;28;20092;-57
2023/11/27 08:59:52;;;;;;;4.60;3.47;;;;;;;;;;5114747;28;20028;-58
2023/11/27 09:02:18;;;;;;;5.28;3.25;;;;;;;;;;5114182;28;20076;-58
2023/11/27 09:04:44;;;;;;;4.80;3.40;;;;;;;;;;5114146;28;20027;-58
2023/11/27 09:07:11;;;;;;;5.63;3.55;;;;;;;;;;5114677;28;20023;-59
2023/11/27 09:09:38;;;;;;;5.90;3.30;;;;;;;;;;5114598;28;20384;-59
2023/11/27 09:12:04;;;;;;;3.80;3.13;;;;;;;;;;5113907;28;20027;-58
2023/11/27 09:14:31;;;;;;;5.53;3.72;;;;;;;;;;5114071;28;20113;-59
2023/11/27 09:16:57;;;;;;;5.57;3.60;;;;;;;;;;5114416;28;20519;-59
2023/11/27 09:19:23;;;;;;;5.03;3.13;;;;;;;;;;5114296;28;20123;-58
2023/11/27 09:21:49;;;;;;;4.10;2.67;;;;;;;;;;5114668;28;20081;-59
2023/11/27 09:24:15;;;;;;;4.22;3.25;;;;;;;;;;5114036;28;20444;-58
2023/11/27 09:26:41;;;;;;;3.95;2.47;;;;;;;;;;5116640;28;20062;-59
2023/11/27 09:29:07;;;;;;;4.93;2.70;;;;;;;;;;5118107;28;20023;-59
2023/11/27 09:31:33;;;;;;;4.40;2.95;;;;;;;;;;5118571;28;20024;-58
2023/11/27 09:33:59;;;;;;;6.97;2.63;;;;;;;;;;5118015;28;20042;-57
2023/11/27 09:36:26;;;;;;;5.47;3.10;;;;;;;;;;5117980;28;20027;-59
2023/11/27 09:38:52;;;;;;;4.72;3.05;;;;;;;;;;5118750;28;20028;-59
2023/11/27 09:41:18;;;;;;;5.38;2.55;;;;;;;;;;5118418;28;20030;-58
2023/11/27 09:43:44;;;;;;;5.28;3.28;;;;;;;;;;5118034;28;20031;-59
2023/11/27 09:46:11;;;;;;;12.77;1.83;;;;;;;;;;5117846;28;20038;-59
2023/11/27 09:48:40;;;;;;;5.95;2.22;;;;;;;;;;5118427;28;20028;-58
2023/11/27 09:51:11;;;;;;;3.28;2.38;;;;;;;;;;5117726;28;20042;-58
2023/11/27 09:53:40;;;;;;;4.82;2.67;;;;;;;;;;5118147;28;20086;-59
2023/11/27 09:56:07;;;;;;;3.80;2.13;;;;;;;;;;5118225;28;20130;-58
2023/11/27 09:58:36;;;;;;;3.03;1.90;;;;;;;;;;5118370;28;20039;-59
2023/11/27 10:01:02;;;;;;;3.25;2.28;;;;;;;;;;5117502;28;20028;-58
2023/11/27 10:03:29;;;;;;;4.40;2.15;;;;;;;;;;5117538;28;20362;-59
2023/11/27 10:05:57;;;;;;;5.43;1.92;;;;;;;;;;5118218;28;20019;-58
2023/11/27 10:08:26;;;;;;;3.60;1.50;;;;;;;;;;5118253;28;20351;-59
2023/11/27 10:10:52;;;;;;;3.70;1.80;;;;;;;;;;5117801;28;20342;-58
2023/11/27 10:13:29;;;;;;;2.88;1.85;;;;;;;;;;5117883;28;20038;-59
2023/11/27 10:15:58;;;;;;;2.33;1.48;;;;;;;;;;5117863;28;20027;-59
2023/11/27 10:18:24;;;;;;;2.72;1.70;;;;;;;;;;5117893;28;20028;-56
2023/11/27 10:20:50;;;;;;;3.15;1.77;;;;;;;;;;5117467;28;20028;-58
2023/11/27 10:23:17;;;;;;;3.45;1.92;;;;;;;;;;5117071;28;20023;-57
2023/11/27 10:25:42;;;;;;;4.05;2.08;;;;;;;;;;5117493;28;20027;-57
2023/11/27 10:28:09;;;;;;;3.55;1.35;;;;;;;;;;5118135;28;20089;-56
2023/11/27 10:30:36;;;;;;;3.13;1.42;;;;;;;;;;5116644;28;20034;-57
2023/11/27 10:33:02;;;;;;;3.58;1.83;;;;;;;;;;5117489;28;20039;-57
2023/11/27 10:35:31;;;;;;;3.33;2.15;;;;;;;;;;5116832;28;20056;-55
2023/11/27 10:37:58;;;;;;;3.17;1.60;;;;;;;;;;5116726;28;20028;-59
2023/11/27 10:40:27;;;;;;;2.92;1.40;;;;;;;;;;5117311;28;20016;-57
2023/11/27 10:42:59;;;;;;;2.72;1.48;;;;;;;;;;5115806;28;20042;-59
2023/11/27 10:45:26;;;;;;;3.20;1.17;;;;;;;;;;5116511;28;20049;-58
2023/11/27 10:47:52;;;;;;;1.70;0.90;;;;;;;;;;5117087;28;20102;-59
2023/11/27 10:50:19;;;;;;;3.35;1.83;;;;;;;;;;5117154;28;20035;-58
2023/11/27 10:52:49;;;;;;;2.28;1.27;;;;;;;;;;5116994;28;20031;-59
2023/11/27 10:55:19;;;;;;;4.53;1.65;;;;;;;;;;5117530;28;20081;-59
2023/11/27 10:57:46;;;;;;;2.67;1.35;;;;;;;;;;5116867;28;20038;-59
2023/11/27 11:00:27;;;;;;;3.13;1.40;;;;;;;;;;5116891;28;20030;-59
2023/11/27 11:02:53;;;;;;;3.25;1.73;;;;;;;;;;5116734;28;20030;-57
2023/11/27 11:05:26;;;;;;;3.75;1.23;;;;;;;;;;5116709;28;20350;-56
2023/11/27 11:07:55;;;;;;;2.60;1.60;;;;;;;;;;5116823;28;20114;-59
2023/11/27 11:10:26;;;;;;;3.50;1.45;;;;;;;;;;5116190;28;20028;-59
2023/11/27 11:12:53;;;;;;;3.90;1.80;;;;;;;;;;5116731;28;20032;-57
2023/11/27 11:15:25;;;;;;;2.25;1.00;;;;;;;;;;5116175;28;20027;-56
2023/11/27 11:17:54;;;;;;;1.98;1.27;;;;;;;;;;5116927;28;20027;-57
2023/11/27 11:20:30;;;;;;;1.95;1.10;;;;;;;;;;5115673;28;20098;-57
2023/11/27 11:23:15;;;;;;;2.85;1.23;;;;;;;;;;5116465;28;20110;-57
2023/11/27 11:25:48;;;;;;;2.67;1.52;;;;;;;;;;5116086;28;20104;-58
2023/11/27 11:28:21;;;;;;;4.38;1.20;;;;;;;;;;5116224;28;20034;-57
2023/11/27 11:31:07;;;;;;;1.75;1.00;;;;;;;;;;5115386;28;20034;-56
2023/11/27 11:33:33;;;;;;;3.30;1.98;;;;;;;;;;5115716;28;20035;-56
2023/11/27 11:35:59;;;;;;;2.90;1.48;;;;;;;;;;5115301;28;20101;-57
2023/11/27 11:38:25;;;;;;;2.50;1.17;;;;;;;;;;5116335;28;20036;-56
2023/11/27 11:40:51;;;;;;;2.90;1.67;;;;;;;;;;5115883;28;20024;-57
2023/11/27 11:43:24;;;;;;;2.35;1.17;;;;;;;;;;5115493;28;20062;-55
2023/11/27 11:45:50;;;;;;;1.92;1.05;;;;;;;;;;5115495;28;20051;-57
2023/11/27 11:48:18;;;;;;;2.50;1.42;;;;;;;;;;5115724;28;20087;-55
2023/11/27 11:50:46;;;;;;;2.35;1.23;;;;;;;;;;5115015;28;20031;-58
2023/11/27 11:53:18;;;;;;;2.92;1.45;;;;;;;;;;5115226;28;20027;-57
2023/11/27 11:55:47;;;;;;;2.45;1.10;;;;;;;;;;5115240;28;20051;-55
2023/11/27 11:58:19;;;;;;;2.00;1.25;;;;;;;;;;5115255;28;20030;-57
2023/11/27 12:00:50;;;;;;;2.45;1.15;;;;;;;;;;5115070;28;20074;-58
2023/11/27 12:03:18;;;;;;;2.85;1.17;;;;;;;;;;5115073;28;20020;-56
2023/11/27 12:05:53;;;;;;;2.78;1.08;;;;;;;;;;5116027;28;20126;-54
2023/11/27 12:08:19;;;;;;;3.50;1.02;;;;;;;;;;5115240;28;20023;-57
2023/11/27 12:10:46;;;;;;;1.70;0.98;;;;;;;;;;5114984;28;20024;-57
2023/11/27 12:13:12;;;;;;;2.13;1.02;;;;;;;;;;5115578;28;20032;-55
2023/11/27 12:15:38;;;;;;;2.03;0.98;;;;;;;;;;5115567;28;20034;-57
2023/11/27 12:18:08;;;;;;;1.92;1.10;;;;;;;;;;5115269;28;20118;-57
2023/11/27 12:20:37;;;;;;;1.95;1.13;;;;;;;;;;5114792;28;20061;-56
2023/11/27 12:23:04;;;;;;;2.33;1.25;;;;;;;;;;5114855;28;20020;-58
2023/11/27 12:25:30;;;;;;;1.88;0.90;;;;;;;;;;5114780;28;20019;-57
2023/11/27 12:27:56;;;;;;;2.35;0.98;;;;;;;;;;5114355;28;20023;-57
2023/11/27 12:30:23;;;;;;;1.40;0.70;;;;;;;;;;5115098;28;20019;-57
2023/11/27 12:32:52;;;;;;;2.00;1.00;;;;;;;;;;5114973;28;20460;-58
2023/11/27 12:35:18;;;;;;;2.65;1.23;;;;;;;;;;5114510;28;20038;-58
2023/11/27 12:37:45;;;;;;;1.85;0.80;;;;;;;;;;5115163;28;20028;-58
2023/11/27 12:40:17;;;;;;;2.05;1.13;;;;;;;;;;5114747;28;20111;-58
2023/11/27 12:42:43;;;;;;;1.85;0.90;;;;;;;;;;5114689;28;20038;-55
2023/11/27 12:45:11;;;;;;;2.08;1.05;;;;;;;;;;5114796;28;20368;-57
2023/11/27 12:47:37;;;;;;;2.53;0.90;;;;;;;;;;5114601;28;20023;-57
2023/11/27 12:50:22;;;;;;;1.95;1.05;;;;;;;;;;5114410;28;20372;-57
2023/11/27 12:52:48;;;;;;;2.53;1.25;;;;;;;;;;5114888;28;20032;-58
2023/11/27 12:55:15;;;;;;;2.45;1.15;;;;;;;;;;5114271;28;20433;-58
2023/11/27 12:57:45;;;;;;;2.38;1.05;;;;;;;;;;5114931;28;20420;-57
2023/11/27 13:00:13;;;;;;;2.30;1.10;;;;;;;;;;5114549;28;20032;-56
2023/11/27 13:02:43;;;;;;;1.45;0.93;;;;;;;;;;5115041;28;20039;-58
2023/11/27 13:05:12;;;;;;;2.77;1.20;;;;;;;;;;5114255;28;20062;-58
2023/11/27 13:07:41;;;;;;;2.53;1.30;;;;;;;;;;5114563;28;20023;-54
2023/11/27 13:10:11;;;;;;;2.17;1.13;;;;;;;;;;5114495;28;20027;-57
2023/11/27 13:12:47;;;;;;;2.40;1.27;;;;;;;;;;5114071;28;20038;-57
2023/11/27 13:15:21;;;;;;;4.53;1.00;;;;;;;;;;5114663;28;20023;-57
2023/11/27 13:17:47;;;;;;;1.67;0.88;;;;;;;;;;5114645;28;20027;-57
2023/11/27 13:20:17;;;;;;;4.18;1.23;;;;;;;;;;5114432;28;20457;-57
2023/11/27 13:22:45;;;;;;;1.77;0.70;;;;;;;;;;5114133;28;20027;-56
2023/11/27 13:25:15;;;;;;;2.13;0.82;;;;;;;;;;5114616;28;20031;-57
2023/11/27 13:27:47;;;;;;;4.65;1.48;;;;;;;;;;5114572;28;20368;-57
2023/11/27 13:30:26;;;;;;;1.30;0.63;;;;;;;;;;5114115;28;20024;-56
2023/11/27 13:32:53;;;;;;;5.03;1.00;;;;;;;;;;5114558;28;20031;-57
2023/11/27 13:35:29;;;;;;;1.90;0.90;;;;;;;;;;5113930;28;20027;-57
2023/11/27 13:37:55;;;;;;;3.03;0.90;;;;;;;;;;5114144;28;20020;-57
2023/11/27 13:40:23;;;;;;;1.48;0.68;;;;;;;;;;5114373;28;20053;-57
2023/11/27 13:42:50;;;;;;;0.88;0.30;;;;;;;;;;5113800;28;20020;-55
2023/11/27 13:45:21;;;;;;;3.58;0.80;;;;;;;;;;5113905;28;20369;-57
2023/11/27 13:47:52;;;;;;;2.42;0.70;;;;;;;;;;5114210;28;20023;-56
2023/11/27 13:50:18;;;;;;;1.90;0.80;;;;;;;;;;5114210;28;20442;-57
2023/11/27 13:52:44;;;;;;;0.85;0.35;;;;;;;;;;5114147;28;20126;-56
2023/11/27 13:55:10;;;;;;;1.25;0.52;;;;;;;;;;5113474;28;20095;-56
2023/11/27 13:57:37;;;;;;;1.83;0.50;;;;;;;;;;5114109;28;20466;-53
2023/11/27 14:00:18;;;;;;;1.10;0.68;;;;;;;;;;5113367;28;20062;-57
2023/11/27 14:02:47;;;;;;;2.65;1.08;;;;;;;;;;5114207;28;20080;-58
2023/11/27 14:05:20;;;;;;;0.80;0.40;;;;;;;;;;5113629;28;20027;-57
2023/11/27 14:07:52;;;;;;;2.00;1.10;;;;;;;;;;5113781;28;20119;-57
2023/11/27 14:10:22;;;;;;;3.17;1.13;;;;;;;;;;5113643;28;20051;-57
2023/11/27 14:12:53;;;;;;;6.87;1.20;;;;;;;;;;5115813;28;20076;-57
2023/11/27 14:15:22;;;;;;;4.68;1.23;;;;;;;;;;5117427;28;20039;-57
2023/11/27 14:17:57;;;;;;;3.13;1.38;;;;;;;;;;5117714;28;20031;-57
2023/11/27 14:23:25;;;;;;;3.67;1.80;;;;;;;;;;5117604;28;20038;-56
2023/11/27 14:31:17;;;;;;;3.50;1.90;;;;;;;;;;5117078;28;20104;-54
2023/11/27 14:33:46;;;;;;;3.95;2.20;;;;;;;;;;5116876;28;20019;-56
2023/11/27 14:36:14;;;;;;;3.05;1.67;;;;;;;;;;5116912;28;20031;-55
2023/11/27 14:38:40;;;;;;;4.55;1.70;;;;;;;;;;5117295;28;20028;-55
2023/11/27 14:41:06;;;;;;;3.83;2.00;;;;;;;;;;5116957;28;20114;-54
2023/11/27 14:43:32;;;;;;;3.85;1.77;;;;;;;;;;5117572;28;20024;-56
2023/11/27 14:45:59;;;;;;;2.50;1.25;;;;;;;;;;5117308;28;20472;-56
2023/11/27 14:48:31;;;;;;;2.15;0.95;;;;;;;;;;5117433;28;20034;-54
2023/11/27 14:50:58;;;;;;;2.58;0.82;;;;;;;;;;5117167;28;20106;-54